createdAt,value
2022-12-23T00:02:14.257Z,78436.22
2022-12-23T00:04:43.495Z,78421.09
2022-12-23T00:07:12.838Z,78432.94
2022-12-23T00:09:42.020Z,78400.69
2022-12-23T00:12:29.555Z,78403.31
2022-12-23T00:15:07.734Z,78394.03
2022-12-23T00:17:40.084Z,78420.31
2022-12-23T00:20:12.014Z,78422.25
2022-12-23T00:23:00.269Z,78421.53
2022-12-23T00:25:47.408Z,78404.31
2022-12-23T00:28:23.585Z,78398.34
2022-12-23T00:31:12.539Z,78411.50
2022-12-23T00:33:44.820Z,78415.53
2022-12-23T00:36:14.660Z,78416.88
2022-12-23T00:39:02.081Z,78373.34
2022-12-23T00:41:49.529Z,78418.09
2022-12-23T00:44:18.913Z,78383.13
2022-12-23T00:46:48.037Z,78423.19
2022-12-23T00:49:38.124Z,78422.41
2022-12-23T00:52:10.367Z,78431.63
2022-12-23T00:54:40.301Z,78425.84
2022-12-23T00:57:09.765Z,78444.38
2022-12-23T00:59:39.046Z,78435.09
2022-12-23T01:02:26.845Z,78437.06
2022-12-23T01:05:14.501Z,78415.34
2022-12-23T01:07:43.965Z,78427.81
2022-12-23T01:10:13.333Z,78437.00
2022-12-23T01:12:42.424Z,78424.44
2022-12-23T01:15:12.185Z,78414.50
2022-12-23T01:17:41.657Z,78423.00
2022-12-23T01:20:11.467Z,78415.13
2022-12-23T01:22:40.953Z,78400.53
2022-12-23T01:25:10.656Z,78436.13
2022-12-23T01:27:40.172Z,78444.72
2022-12-23T01:30:10.338Z,78457.31
2022-12-23T01:32:39.935Z,78456.56
2022-12-23T01:35:09.352Z,78459.09
2022-12-23T01:37:38.837Z,78454.66
2022-12-23T01:40:08.920Z,78460.72
2022-12-23T01:42:44.841Z,78437.03
2022-12-23T01:45:19.227Z,78462.53
2022-12-23T01:47:57.237Z,78457.84
2022-12-23T01:51:07.939Z,78459.63
2022-12-23T01:53:42.013Z,78452.22
2022-12-23T01:56:24.971Z,78469.25
2022-12-23T01:59:04.198Z,78452.84
2022-12-23T02:01:51.964Z,78458.63
2022-12-23T02:04:26.227Z,78448.16
2022-12-23T02:07:13.639Z,78451.41
2022-12-23T02:09:42.966Z,78471.75
2022-12-23T02:12:43.887Z,78462.38
2022-12-23T02:15:49.588Z,78473.59
2022-12-23T02:18:19.019Z,78469.63
2022-12-23T02:21:24.504Z,78468.81
2022-12-23T02:24:31.283Z,78474.81
2022-12-23T02:27:04.204Z,78480.22
2022-12-23T02:30:02.796Z,78462.47
2022-12-23T02:32:51.006Z,78475.72
2022-12-23T02:35:44.889Z,78466.41
2022-12-23T02:38:22.937Z,78475.03
2022-12-23T02:41:28.121Z,78459.84
2022-12-23T02:44:32.345Z,78441.78
2022-12-23T02:47:11.931Z,78480.88
2022-12-23T02:49:50.684Z,78462.59
2022-12-23T02:52:23.485Z,78452.69
2022-12-23T02:54:58.769Z,78479.94
2022-12-23T02:57:33.902Z,78472.78
2022-12-23T03:00:05.225Z,78482.34
2022-12-23T03:02:40.574Z,78462.88
2022-12-23T03:05:41.611Z,78472.16
2022-12-23T03:08:44.282Z,78480.78
2022-12-23T03:11:17.378Z,78488.66
2022-12-23T03:13:55.113Z,78501.78
2022-12-23T03:16:56.189Z,78505.63
2022-12-23T03:19:40.782Z,78491.25
2022-12-23T03:22:42.767Z,78510.25
2022-12-23T03:25:26.086Z,78510.88
2022-12-23T03:28:05.798Z,78500.97
2022-12-23T03:30:37.606Z,78505.47
2022-12-23T03:33:15.316Z,78514.72
2022-12-23T03:35:57.005Z,78478.00
2022-12-23T03:38:27.615Z,78494.41
2022-12-23T03:41:03.222Z,78524.59
2022-12-23T03:43:50.716Z,78486.09
2022-12-23T03:47:00.237Z,78532.31
2022-12-23T03:49:39.489Z,78528.44
2022-12-23T03:52:21.701Z,78524.38
2022-12-23T03:54:57.127Z,78540.75
2022-12-23T03:57:41.835Z,78540.03
2022-12-23T04:00:13.107Z,78543.09
2022-12-23T04:02:55.478Z,78540.47
2022-12-23T04:05:42.324Z,78543.03
2022-12-23T04:08:36.527Z,78550.81
2022-12-23T04:11:07.333Z,78525.22
2022-12-23T04:13:37.000Z,78546.91
2022-12-23T04:16:08.861Z,78549.50
2022-12-23T04:18:39.353Z,78533.06
2022-12-23T04:21:08.919Z,78553.97
2022-12-23T04:23:38.196Z,78525.78
2022-12-23T04:26:07.734Z,78551.47
2022-12-23T04:28:37.046Z,78565.25
2022-12-23T04:31:06.768Z,78569.00
2022-12-23T04:33:36.191Z,78576.19
2022-12-23T04:36:05.930Z,78568.91
2022-12-23T04:38:35.207Z,78553.09
2022-12-23T04:41:04.727Z,78576.28
2022-12-23T04:43:34.074Z,78590.72
2022-12-23T04:46:03.462Z,78547.81
2022-12-23T04:48:32.836Z,78581.19
2022-12-23T04:51:04.459Z,78555.75
2022-12-23T04:53:33.827Z,78558.81
2022-12-23T04:56:03.281Z,78568.91
2022-12-23T04:58:32.618Z,78555.75
2022-12-23T05:01:10.773Z,78589.25
2022-12-23T05:03:41.533Z,78577.22
2022-12-23T05:06:11.288Z,78581.56
2022-12-23T05:08:40.821Z,78585.88
2022-12-23T05:11:10.277Z,78585.81
2022-12-23T05:13:39.499Z,78578.94
2022-12-23T05:16:09.208Z,78573.59
2022-12-23T05:18:38.985Z,78554.72
2022-12-23T05:21:08.312Z,78587.81
2022-12-23T05:23:37.570Z,78572.72
2022-12-23T05:26:07.600Z,78570.78
2022-12-23T05:28:37.163Z,78572.19
2022-12-23T05:31:09.181Z,78586.06
2022-12-23T05:33:42.578Z,78579.19
2022-12-23T05:36:14.031Z,78587.00
2022-12-23T05:38:43.420Z,78574.75
2022-12-23T05:41:12.828Z,78575.31
2022-12-23T05:43:42.590Z,78588.63
2022-12-23T05:46:11.879Z,78571.81
2022-12-23T05:48:41.278Z,78588.53
2022-12-23T05:51:10.670Z,78580.94
2022-12-23T05:53:40.225Z,78591.91
2022-12-23T05:56:12.632Z,78567.78
2022-12-23T05:58:42.261Z,78592.41
2022-12-23T06:01:11.666Z,78536.34
2022-12-23T06:03:41.710Z,78572.47
2022-12-23T06:06:11.232Z,78562.00
2022-12-23T06:08:40.437Z,78572.16
2022-12-23T06:11:09.799Z,78560.97
2022-12-23T06:13:39.295Z,78561.06
2022-12-23T06:16:09.117Z,78565.94
2022-12-23T06:18:39.280Z,78556.00
2022-12-23T06:21:09.075Z,78548.50
2022-12-23T06:23:39.156Z,78540.13
2022-12-23T06:26:08.833Z,78542.44
2022-12-23T06:28:39.006Z,78546.47
2022-12-23T06:31:08.759Z,78520.34
2022-12-23T06:33:39.246Z,78524.00
2022-12-23T06:36:10.146Z,78536.84
2022-12-23T06:38:40.062Z,78528.56
2022-12-23T06:41:09.680Z,78513.91
2022-12-23T06:43:39.004Z,78506.97
2022-12-23T06:46:08.742Z,78506.66
2022-12-23T06:48:38.110Z,78521.50
2022-12-23T06:51:12.144Z,78535.22
2022-12-23T06:53:42.664Z,78530.03
2022-12-23T06:56:11.958Z,78510.31
2022-12-23T06:58:41.957Z,78519.13
2022-12-23T07:01:11.166Z,78517.75
2022-12-23T07:03:42.228Z,78513.03
2022-12-23T07:06:12.061Z,78493.38
2022-12-23T07:08:41.544Z,78495.31
2022-12-23T07:11:10.763Z,78491.75
2022-12-23T07:13:40.596Z,78508.81
2022-12-23T07:16:10.967Z,78467.47
2022-12-23T07:18:40.759Z,78470.03
2022-12-23T07:21:21.181Z,78491.56
2022-12-23T07:23:54.472Z,78494.94
2022-12-23T07:26:23.691Z,78505.16
2022-12-23T07:28:53.556Z,78462.19
2022-12-23T07:31:23.225Z,78485.59
2022-12-23T07:33:53.271Z,78493.38
2022-12-23T07:36:22.688Z,78488.75
2022-12-23T07:38:53.711Z,78477.31
2022-12-23T07:41:23.642Z,78478.75
2022-12-23T07:43:53.149Z,78470.28
2022-12-23T07:46:22.972Z,78416.31
2022-12-23T07:48:52.359Z,78469.50
2022-12-23T07:51:21.749Z,78465.84
2022-12-23T07:53:52.106Z,78435.16
2022-12-23T07:56:21.877Z,78471.94
2022-12-23T07:58:55.394Z,78470.88
2022-12-23T08:01:25.193Z,78455.16
2022-12-23T08:03:54.488Z,78445.41
2022-12-23T08:06:23.845Z,78446.91
2022-12-23T08:08:53.490Z,78449.22
2022-12-23T08:11:22.625Z,78453.97
2022-12-23T08:13:53.869Z,78450.06
2022-12-23T08:16:23.676Z,78447.84
2022-12-23T08:18:53.019Z,78441.47
2022-12-23T08:21:22.571Z,78445.25
2022-12-23T08:23:53.166Z,78457.50
2022-12-23T08:26:25.839Z,78467.81
2022-12-23T08:28:55.288Z,78429.78
2022-12-23T08:31:31.058Z,78447.50
2022-12-23T08:34:02.018Z,78455.16
2022-12-23T08:36:37.219Z,78462.03
2022-12-23T08:39:10.170Z,78456.00
2022-12-23T08:41:45.937Z,78452.22
2022-12-23T08:44:16.117Z,78436.94
2022-12-23T08:46:45.905Z,78443.28
2022-12-23T08:49:15.713Z,78419.56
2022-12-23T08:51:45.466Z,78403.78
2022-12-23T08:54:14.908Z,78402.22
2022-12-23T08:56:45.076Z,78438.63
2022-12-23T08:59:18.993Z,78416.44
2022-12-23T09:01:49.327Z,78418.41
2022-12-23T09:04:19.407Z,78431.91
2022-12-23T09:06:48.915Z,78430.25
2022-12-23T09:09:18.555Z,78419.28
2022-12-23T09:11:48.077Z,78426.41
2022-12-23T09:14:17.334Z,78437.00
2022-12-23T09:16:46.979Z,78411.38
2022-12-23T09:19:16.433Z,78410.72
2022-12-23T09:21:46.064Z,78429.72
2022-12-23T09:24:15.178Z,78413.09
2022-12-23T09:26:44.747Z,78418.88
2022-12-23T09:29:13.905Z,78418.84
2022-12-23T09:31:43.549Z,78426.56
2022-12-23T09:34:13.242Z,78434.31
2022-12-23T09:36:42.894Z,78413.06
2022-12-23T09:39:12.580Z,78407.44
2022-12-23T09:41:56.993Z,78423.91
2022-12-23T09:44:45.369Z,78422.72
2022-12-23T09:47:20.132Z,78429.63
2022-12-23T09:50:02.832Z,78386.84
2022-12-23T09:52:39.333Z,78423.78
2022-12-23T09:55:13.392Z,78431.19
2022-12-23T09:58:02.065Z,78410.53
2022-12-23T10:00:44.367Z,78417.97
2022-12-23T10:03:30.502Z,78429.13
2022-12-23T10:06:16.676Z,78413.75
2022-12-23T10:08:55.005Z,78406.03
2022-12-23T10:11:32.536Z,78408.53
2022-12-23T10:14:10.821Z,78403.47
2022-12-23T10:16:46.538Z,78393.56
2022-12-23T10:19:21.780Z,78413.97
2022-12-23T10:22:04.086Z,78402.69
2022-12-23T10:24:40.432Z,78388.63
2022-12-23T10:27:28.461Z,78410.28
2022-12-23T10:30:20.004Z,78393.53
2022-12-23T10:33:33.709Z,78374.09
2022-12-23T10:36:22.266Z,78401.22
2022-12-23T10:38:57.864Z,78404.44
2022-12-23T10:41:43.718Z,78394.63
2022-12-23T10:44:25.393Z,78402.81
2022-12-23T10:47:13.932Z,78399.69
2022-12-23T10:49:54.908Z,78401.97
2022-12-23T10:52:29.195Z,78386.03
2022-12-23T10:54:58.806Z,78401.72
2022-12-23T10:57:28.055Z,78389.94
2022-12-23T10:59:59.478Z,78395.09
2022-12-23T11:02:51.074Z,78363.19
2022-12-23T11:05:28.914Z,78401.41
2022-12-23T11:07:58.881Z,78370.34
2022-12-23T11:10:34.145Z,78386.28
2022-12-23T11:13:03.632Z,78375.63
2022-12-23T11:15:34.791Z,78376.47
2022-12-23T11:18:24.332Z,78358.38
2022-12-23T11:21:16.253Z,78389.38
2022-12-23T11:23:45.698Z,78398.91
2022-12-23T11:26:20.032Z,78378.75
2022-12-23T11:28:52.336Z,78376.56
2022-12-23T11:31:36.745Z,78388.44
2022-12-23T11:34:18.062Z,78396.66
2022-12-23T11:37:05.221Z,78379.88
2022-12-23T11:39:38.997Z,78380.09
2022-12-23T11:42:20.452Z,78393.34
2022-12-23T11:44:54.147Z,78374.56
2022-12-23T11:47:35.951Z,78407.44
2022-12-23T11:50:36.566Z,78406.91
2022-12-23T11:53:23.314Z,78397.78
2022-12-23T11:56:10.448Z,78394.06
2022-12-23T11:58:55.046Z,78393.56
2022-12-23T12:01:26.617Z,78405.44
2022-12-23T12:04:04.739Z,78409.34
2022-12-23T12:06:34.923Z,78385.13
2022-12-23T12:09:07.842Z,78374.69
2022-12-23T12:11:47.897Z,78404.25
2022-12-23T12:14:34.077Z,78401.69
2022-12-23T12:17:33.202Z,78412.19
2022-12-23T12:20:06.023Z,78368.88
2022-12-23T12:22:53.079Z,78413.59
2022-12-23T12:25:27.239Z,78414.97
2022-12-23T12:28:05.658Z,78414.31
2022-12-23T12:30:41.800Z,78410.41
2022-12-23T12:33:19.404Z,78418.94
2022-12-23T12:36:05.370Z,78412.34
2022-12-23T12:38:39.557Z,78405.13
2022-12-23T12:41:20.528Z,78419.59
2022-12-23T12:44:00.350Z,78405.78
2022-12-23T12:46:41.021Z,78396.59
2022-12-23T12:49:42.507Z,78424.88
2022-12-23T12:52:23.654Z,78413.03
2022-12-23T12:55:14.653Z,78423.59
2022-12-23T12:57:44.571Z,78419.69
2022-12-23T13:00:23.242Z,78415.75
2022-12-23T13:03:32.393Z,78434.78
2022-12-23T13:06:39.147Z,78430.19
2022-12-23T13:09:08.911Z,78438.72
2022-12-23T13:11:59.548Z,78434.16
2022-12-23T13:14:54.803Z,78441.34
2022-12-23T13:17:37.535Z,78428.25
2022-12-23T13:20:22.317Z,78448.63
2022-12-23T13:23:06.330Z,78442.09
2022-12-23T13:25:56.774Z,78436.84
2022-12-23T13:28:52.422Z,78450.66
2022-12-23T13:31:25.061Z,78459.88
2022-12-23T13:34:35.381Z,78445.41
2022-12-23T13:37:33.522Z,78430.28
2022-12-23T13:40:32.428Z,78451.31
2022-12-23T13:43:15.068Z,78439.47
2022-12-23T13:45:47.951Z,78442.78
2022-12-23T13:48:42.359Z,78453.94
2022-12-23T13:51:22.862Z,78453.97
2022-12-23T13:54:04.811Z,78459.88
2022-12-23T13:56:50.097Z,78455.28
2022-12-23T13:59:20.838Z,78440.16
2022-12-23T14:01:53.614Z,78443.44
2022-12-23T14:04:37.438Z,78459.91
2022-12-23T14:07:23.632Z,78463.84
2022-12-23T14:10:00.020Z,78456.63
2022-12-23T14:12:36.967Z,78441.47
2022-12-23T14:15:27.869Z,78461.22
2022-12-23T14:18:18.723Z,78461.22
2022-12-23T14:21:17.400Z,78475.03
2022-12-23T14:24:21.918Z,78441.47
2022-12-23T14:27:15.691Z,78460.56
2022-12-23T14:30:12.044Z,78461.22
2022-12-23T14:33:07.535Z,78471.75
2022-12-23T14:35:42.698Z,78471.72
2022-12-23T14:38:18.710Z,78477.00
2022-12-23T14:40:48.244Z,78478.28
2022-12-23T14:43:44.546Z,78473.69
2022-12-23T14:46:52.412Z,78458.53
2022-12-23T14:49:40.432Z,78456.56
2022-12-23T14:52:44.838Z,78475.63
2022-12-23T14:55:32.344Z,78478.94
2022-12-23T14:58:10.674Z,78479.56
2022-12-23T15:01:05.621Z,78474.31
2022-12-23T15:03:50.775Z,78478.16
2022-12-23T15:06:41.162Z,78484.03
2022-12-23T15:09:28.768Z,78490.50
2022-12-23T15:12:02.893Z,78485.88
2022-12-23T15:15:03.403Z,78483.16
2022-12-23T15:17:35.822Z,78491.66
2022-12-23T15:20:25.810Z,78496.88
2022-12-23T15:23:01.074Z,78490.19
2022-12-23T15:25:34.848Z,78488.81
2022-12-23T15:28:06.781Z,78490.19
2022-12-23T15:30:48.524Z,78498.78
2022-12-23T15:34:01.389Z,78506.00
2022-12-23T15:36:29.531Z,78494.75
2022-12-23T15:39:02.354Z,78502.63
2022-12-23T15:41:32.712Z,78472.97
2022-12-23T15:44:02.823Z,78480.16
2022-12-23T15:46:34.090Z,78512.47
2022-12-23T15:49:04.339Z,78480.78
2022-12-23T15:54:41.847Z,78486.72
2022-12-23T15:57:22.064Z,78498.00
2022-12-23T15:59:56.158Z,78519.13
2022-12-23T16:05:38.470Z,78516.13
2022-12-23T16:08:14.605Z,78524.78
2022-12-23T16:11:01.565Z,78518.19
2022-12-23T16:13:33.716Z,78520.91
2022-12-23T16:16:29.439Z,78497.88
2022-12-23T16:19:00.035Z,78518.34
2022-12-23T16:21:34.850Z,78515.75
2022-12-23T16:24:10.708Z,78490.09
2022-12-23T16:26:44.966Z,78513.16
2022-12-23T16:29:19.980Z,78478.91
2022-12-23T16:31:56.092Z,78498.03
2022-12-23T16:34:33.252Z,78511.84
2022-12-23T16:37:03.796Z,78478.91
2022-12-23T16:39:34.440Z,78484.22
2022-12-23T16:42:06.600Z,78519.09
2022-12-23T16:44:36.879Z,78506.59
2022-12-23T16:47:15.268Z,78505.94
2022-12-23T16:49:47.693Z,78509.88
2022-12-23T16:52:25.782Z,78505.94
2022-12-23T16:54:56.487Z,78525.00
2022-12-23T16:57:27.190Z,78532.22
2022-12-23T16:59:57.671Z,78525.63
2022-12-23T17:02:29.651Z,78522.34
2022-12-23T17:04:59.920Z,78527.56
2022-12-23T17:07:30.347Z,78507.81
2022-12-23T17:10:04.077Z,78544.69
2022-12-23T17:12:34.330Z,78554.53
2022-12-23T17:15:05.632Z,78542.03
2022-12-23T17:17:37.579Z,78550.59
2022-12-23T17:20:08.641Z,78500.53
2022-12-23T17:22:40.660Z,78531.47
2022-12-23T17:25:19.828Z,78544.69
2022-12-23T17:27:52.737Z,78542.69
2022-12-23T17:30:26.666Z,78533.47
2022-12-23T17:33:01.614Z,78544.66
2022-12-23T17:35:32.196Z,78549.91
2022-12-23T17:38:03.326Z,78485.38
2022-12-23T17:40:33.805Z,78537.38
2022-12-23T17:43:04.921Z,78505.16
2022-12-23T17:45:35.366Z,78536.81
2022-12-23T17:48:06.695Z,78538.13
2022-12-23T17:50:37.848Z,78542.03
2022-12-23T17:53:08.516Z,78528.81
2022-12-23T17:55:38.911Z,78524.16
2022-12-23T17:58:09.111Z,78537.97
2022-12-23T18:00:40.682Z,78536.59
2022-12-23T18:03:24.341Z,78504.91
2022-12-23T18:06:01.669Z,78532.50
2022-12-23T18:08:32.123Z,78511.94
2022-12-23T18:11:02.242Z,78552.06
2022-12-23T18:13:32.618Z,78497.88
2022-12-23T18:16:02.385Z,78518.94
2022-12-23T18:18:43.492Z,78557.78
2022-12-23T18:21:27.288Z,78555.09
2022-12-23T18:23:58.984Z,78512.19
2022-12-23T18:26:28.796Z,78540.56
2022-12-23T18:28:58.044Z,78571.56
2022-12-23T18:31:28.264Z,78542.50
2022-12-23T18:33:57.969Z,78555.09
2022-12-23T18:36:31.247Z,78563.56
2022-12-23T18:39:00.904Z,78555.50
2022-12-23T18:41:30.284Z,78552.28
2022-12-23T18:43:59.689Z,78564.09
2022-12-23T18:46:29.132Z,78503.25
2022-12-23T18:48:59.082Z,78511.75
2022-12-23T18:51:28.333Z,78521.50
2022-12-23T18:53:57.931Z,78503.53
2022-12-23T18:56:27.097Z,78534.41
2022-12-23T18:58:56.568Z,78507.16
2022-12-23T19:01:25.951Z,78540.72
2022-12-23T19:03:55.315Z,78545.94
2022-12-23T19:06:24.652Z,78559.78
2022-12-23T19:08:54.316Z,78571.56
2022-12-23T19:11:24.194Z,78539.84
2022-12-23T19:13:53.445Z,78531.16
2022-12-23T19:16:23.457Z,78542.28
2022-12-23T19:18:53.168Z,78563.50
2022-12-23T19:21:22.446Z,78562.69
2022-12-23T19:23:51.720Z,78544.34
2022-12-23T19:26:20.791Z,78560.25
2022-12-23T19:28:50.239Z,78500.84
2022-12-23T19:31:20.057Z,78572.81
2022-12-23T19:33:49.427Z,78549.03
2022-12-23T19:36:26.541Z,78572.13
2022-12-23T19:38:58.073Z,78549.56
2022-12-23T19:41:27.326Z,78588.53
2022-12-23T19:43:56.279Z,78457.06
2022-12-23T19:46:26.073Z,78571.16
2022-12-23T19:48:55.472Z,78566.47
2022-12-23T19:51:25.048Z,78563.09
2022-12-23T19:53:54.143Z,78578.94
2022-12-23T19:56:23.625Z,78562.41
2022-12-23T19:58:52.904Z,78594.66
2022-12-23T20:01:26.004Z,78548.31
2022-12-23T20:03:58.343Z,78579.97
2022-12-23T20:06:31.527Z,78583.34
2022-12-23T20:09:05.334Z,78574.13
2022-12-23T20:11:37.803Z,78591.25
2022-12-23T20:14:08.439Z,78562.78
2022-12-23T20:16:39.348Z,78605.63
2022-12-23T20:19:09.469Z,78571.97
2022-12-23T20:21:38.932Z,78571.88
2022-12-23T20:24:08.768Z,78603.53
2022-12-23T20:26:38.075Z,78579.66
2022-12-23T20:29:08.226Z,78576.31
2022-12-23T20:31:39.539Z,78609.25
2022-12-23T20:34:14.911Z,78611.31
2022-12-23T20:36:44.558Z,78609.59
2022-12-23T20:39:13.681Z,78589.91
2022-12-23T20:41:43.550Z,78603.81
2022-12-23T20:47:02.848Z,78559.59
2022-12-23T20:49:32.254Z,78591.88
2022-12-23T20:52:01.520Z,78586.59
2022-12-23T20:54:33.626Z,78575.16
2022-12-23T20:57:04.818Z,78615.31
2022-12-23T20:59:34.356Z,78612.50
2022-12-23T21:02:03.810Z,78618.28
2022-12-23T21:04:33.534Z,78597.75
2022-12-23T21:07:02.879Z,78598.38
2022-12-23T21:09:32.416Z,78599.03
2022-12-23T21:12:01.857Z,78594.94
2022-12-23T21:14:31.333Z,78580.28
2022-12-23T21:17:00.569Z,78619.41
2022-12-23T21:19:30.146Z,78618.28
2022-12-23T21:21:59.523Z,78591.34
2022-12-23T21:24:28.749Z,78591.44
2022-12-23T21:26:58.153Z,78621.88
2022-12-23T21:29:28.197Z,78632.00
2022-12-23T21:31:57.869Z,78615.00
2022-12-23T21:34:27.090Z,78631.00
2022-12-23T21:36:56.899Z,78635.66
2022-12-23T21:39:26.225Z,78622.41
2022-12-23T21:41:55.542Z,78632.28
2022-12-23T21:44:27.782Z,78604.72
2022-12-23T21:46:57.688Z,78616.75
2022-12-23T21:49:27.039Z,78607.38
2022-12-23T21:51:56.452Z,78624.47
2022-12-23T21:54:25.607Z,78615.22
2022-12-23T21:56:55.231Z,78631.97
2022-12-23T21:59:28.249Z,78593.16
2022-12-23T22:02:00.932Z,78612.31
2022-12-23T22:04:30.413Z,78625.53
2022-12-23T22:06:59.747Z,78620.47
2022-12-23T22:09:28.984Z,78612.59
2022-12-23T22:11:59.470Z,78637.72
2022-12-23T22:14:30.193Z,78617.94
2022-12-23T22:16:59.087Z,78580.22
2022-12-23T22:19:28.853Z,78624.47
2022-12-23T22:21:57.684Z,78625.78
2022-12-23T22:24:26.754Z,78642.31
2022-12-23T22:26:55.444Z,78634.41
2022-12-23T22:29:24.840Z,78624.00
2022-12-23T22:31:54.067Z,78618.66
2022-12-23T22:34:23.960Z,78641.13
2022-12-23T22:36:52.914Z,78613.31
2022-12-23T22:39:22.487Z,78646.38
2022-12-23T22:41:52.728Z,78641.78
2022-12-23T22:44:21.996Z,78631.19
2022-12-23T22:46:51.332Z,78630.59
2022-12-23T22:49:20.390Z,78608.91
2022-12-23T22:51:49.157Z,78610.41
2022-12-23T22:54:18.051Z,78631.03
2022-12-23T22:56:47.335Z,78630.53
2022-12-23T22:59:26.729Z,78647.13
2022-12-23T23:01:56.240Z,78629.41
2022-12-23T23:04:24.903Z,78571.44
2022-12-23T23:06:54.191Z,78613.59
2022-12-23T23:09:24.155Z,78638.63
2022-12-23T23:11:53.327Z,78622.09
2022-12-23T23:14:22.632Z,78638.03
2022-12-23T23:16:51.766Z,78636.09
2022-12-23T23:19:21.347Z,78592.00
2022-12-23T23:21:50.462Z,78611.16
2022-12-23T23:24:19.261Z,78636.28
2022-12-23T23:26:48.154Z,78610.50
2022-12-23T23:29:16.856Z,78620.41
2022-12-23T23:31:45.875Z,78643.50
2022-12-23T23:34:15.073Z,78644.81
2022-12-23T23:36:44.041Z,78637.00
2022-12-23T23:39:14.226Z,78645.59
2022-12-23T23:41:45.016Z,78634.38
2022-12-23T23:44:13.840Z,78615.94
2022-12-23T23:46:42.792Z,78629.81
2022-12-23T23:49:11.683Z,78639.72
2022-12-23T23:51:42.573Z,78658.69
2022-12-23T23:54:11.676Z,78620.38
2022-12-23T23:56:40.374Z,78615.72
2022-12-23T23:59:10.316Z,78649.38
